sensor_id;sensor_type;location;lat;lon;timestamp;P1;durP1;ratioP1;P2;durP2;ratioP2
8737;SDS011;4405;49.272;8.590;2023-12-22T00:00:01;0.53;;;0.53;;
8737;SDS011;4405;49.272;8.590;2023-12-22T00:02:28;0.90;;;0.90;;
8737;SDS011;4405;49.272;8.590;2023-12-22T00:04:55;0.93;;;0.93;;
8737;SDS011;4405;49.272;8.590;2023-12-22T00:07:22;0.60;;;0.60;;
8737;SDS011;4405;49.272;8.590;2023-12-22T00:09:49;0.73;;;0.53;;
8737;SDS011;4405;49.272;8.590;2023-12-22T00:12:15;1.80;;;0.70;;
8737;SDS011;4405;49.272;8.590;2023-12-22T00:14:41;0.70;;;0.70;;
8737;SDS011;4405;49.272;8.590;2023-12-22T00:17:08;1.37;;;0.60;;
8737;SDS011;4405;49.272;8.590;2023-12-22T00:19:35;0.83;;;0.70;;
8737;SDS011;4405;49.272;8.590;2023-12-22T00:22:01;0.43;;;0.43;;
8737;SDS011;4405;49.272;8.590;2023-12-22T00:24:29;1.00;;;1.00;;
8737;SDS011;4405;49.272;8.590;2023-12-22T00:26:56;0.73;;;0.73;;
8737;SDS011;4405;49.272;8.590;2023-12-22T00:29:22;1.20;;;0.70;;
8737;SDS011;4405;49.272;8.590;2023-12-22T00:31:48;0.80;;;0.80;;
8737;SDS011;4405;49.272;8.590;2023-12-22T00:34:15;0.97;;;0.70;;
8737;SDS011;4405;49.272;8.590;2023-12-22T00:36:41;4.33;;;3.97;;
8737;SDS011;4405;49.272;8.590;2023-12-22T00:39:09;2.00;;;1.90;;
8737;SDS011;4405;49.272;8.590;2023-12-22T00:41:38;2.27;;;2.13;;
8737;SDS011;4405;49.272;8.590;2023-12-22T00:44:04;4.40;;;4.10;;
8737;SDS011;4405;49.272;8.590;2023-12-22T00:46:30;3.60;;;3.50;;
8737;SDS011;4405;49.272;8.590;2023-12-22T00:48:57;3.37;;;3.10;;
8737;SDS011;4405;49.272;8.590;2023-12-22T00:51:23;1.00;;;1.00;;
8737;SDS011;4405;49.272;8.590;2023-12-22T00:53:50;5.77;;;5.17;;
8737;SDS011;4405;49.272;8.590;2023-12-22T00:56:16;2.10;;;1.67;;
8737;SDS011;4405;49.272;8.590;2023-12-22T00:58:44;1.20;;;1.10;;
8737;SDS011;4405;49.272;8.590;2023-12-22T01:01:10;1.40;;;1.10;;
8737;SDS011;4405;49.272;8.590;2023-12-22T01:03:36;1.10;;;1.10;;
8737;SDS011;4405;49.272;8.590;2023-12-22T01:06:03;2.07;;;1.00;;
8737;SDS011;4405;49.272;8.590;2023-12-22T01:08:29;1.77;;;1.33;;
8737;SDS011;4405;49.272;8.590;2023-12-22T01:10:55;1.60;;;1.43;;
8737;SDS011;4405;49.272;8.590;2023-12-22T01:13:22;1.50;;;1.40;;
8737;SDS011;4405;49.272;8.590;2023-12-22T01:15:49;1.47;;;1.30;;
8737;SDS011;4405;49.272;8.590;2023-12-22T01:18:16;1.50;;;1.33;;
8737;SDS011;4405;49.272;8.590;2023-12-22T01:20:42;1.47;;;1.10;;
8737;SDS011;4405;49.272;8.590;2023-12-22T01:23:08;0.87;;;0.87;;
8737;SDS011;4405;49.272;8.590;2023-12-22T01:25:35;0.63;;;0.60;;
8737;SDS011;4405;49.272;8.590;2023-12-22T01:28:01;0.80;;;0.80;;
8737;SDS011;4405;49.272;8.590;2023-12-22T01:30:28;0.90;;;0.80;;
8737;SDS011;4405;49.272;8.590;2023-12-22T01:32:55;1.83;;;0.70;;
8737;SDS011;4405;49.272;8.590;2023-12-22T01:35:22;0.80;;;0.80;;
8737;SDS011;4405;49.272;8.590;2023-12-22T01:37:48;2.70;;;0.80;;
8737;SDS011;4405;49.272;8.590;2023-12-22T01:40:16;1.87;;;0.90;;
8737;SDS011;4405;49.272;8.590;2023-12-22T01:42:42;2.30;;;0.80;;
8737;SDS011;4405;49.272;8.590;2023-12-22T01:45:09;0.87;;;0.87;;
8737;SDS011;4405;49.272;8.590;2023-12-22T01:47:35;1.73;;;1.10;;
8737;SDS011;4405;49.272;8.590;2023-12-22T01:50:04;2.27;;;0.80;;
8737;SDS011;4405;49.272;8.590;2023-12-22T01:52:31;1.87;;;1.00;;
8737;SDS011;4405;49.272;8.590;2023-12-22T01:54:57;2.70;;;0.97;;
8737;SDS011;4405;49.272;8.590;2023-12-22T01:57:24;3.43;;;0.93;;
8737;SDS011;4405;49.272;8.590;2023-12-22T01:59:50;1.80;;;1.00;;
8737;SDS011;4405;49.272;8.590;2023-12-22T02:02:17;2.07;;;0.83;;
8737;SDS011;4405;49.272;8.590;2023-12-22T02:04:43;3.73;;;1.10;;
8737;SDS011;4405;49.272;8.590;2023-12-22T02:07:12;1.97;;;1.03;;
8737;SDS011;4405;49.272;8.590;2023-12-22T02:09:38;2.43;;;1.00;;
8737;SDS011;4405;49.272;8.590;2023-12-22T02:12:04;4.00;;;1.30;;
8737;SDS011;4405;49.272;8.590;2023-12-22T02:14:31;3.70;;;1.20;;
8737;SDS011;4405;49.272;8.590;2023-12-22T02:17:00;3.03;;;1.10;;
8737;SDS011;4405;49.272;8.590;2023-12-22T02:19:33;2.30;;;1.10;;
8737;SDS011;4405;49.272;8.590;2023-12-22T02:22:03;1.93;;;1.20;;
8737;SDS011;4405;49.272;8.590;2023-12-22T02:24:31;4.53;;;1.30;;
8737;SDS011;4405;49.272;8.590;2023-12-22T02:26:57;2.23;;;1.10;;
8737;SDS011;4405;49.272;8.590;2023-12-22T02:29:27;4.00;;;1.93;;
8737;SDS011;4405;49.272;8.590;2023-12-22T02:31:54;2.43;;;1.20;;
8737;SDS011;4405;49.272;8.590;2023-12-22T02:34:23;4.73;;;1.40;;
8737;SDS011;4405;49.272;8.590;2023-12-22T02:36:49;3.20;;;1.13;;
8737;SDS011;4405;49.272;8.590;2023-12-22T02:39:17;4.37;;;1.50;;
8737;SDS011;4405;49.272;8.590;2023-12-22T02:41:45;5.70;;;1.20;;
8737;SDS011;4405;49.272;8.590;2023-12-22T02:44:12;2.37;;;1.10;;
8737;SDS011;4405;49.272;8.590;2023-12-22T02:46:38;2.27;;;1.20;;
8737;SDS011;4405;49.272;8.590;2023-12-22T02:49:06;5.27;;;1.50;;
8737;SDS011;4405;49.272;8.590;2023-12-22T02:51:33;6.27;;;1.80;;
8737;SDS011;4405;49.272;8.590;2023-12-22T02:53:59;3.13;;;1.33;;
8737;SDS011;4405;49.272;8.590;2023-12-22T02:56:27;2.93;;;1.10;;
8737;SDS011;4405;49.272;8.590;2023-12-22T02:58:54;2.70;;;1.20;;
8737;SDS011;4405;49.272;8.590;2023-12-22T03:01:21;5.00;;;1.40;;
8737;SDS011;4405;49.272;8.590;2023-12-22T03:03:47;3.73;;;1.20;;
8737;SDS011;4405;49.272;8.590;2023-12-22T03:06:13;5.40;;;1.57;;
8737;SDS011;4405;49.272;8.590;2023-12-22T03:08:39;2.60;;;1.23;;
8737;SDS011;4405;49.272;8.590;2023-12-22T03:11:06;1.60;;;1.50;;
8737;SDS011;4405;49.272;8.590;2023-12-22T03:13:32;3.67;;;1.63;;
8737;SDS011;4405;49.272;8.590;2023-12-22T03:16:00;3.57;;;1.53;;
8737;SDS011;4405;49.272;8.590;2023-12-22T03:18:26;5.83;;;1.43;;
8737;SDS011;4405;49.272;8.590;2023-12-22T03:20:52;3.17;;;1.30;;
8737;SDS011;4405;49.272;8.590;2023-12-22T03:23:19;5.80;;;1.57;;
8737;SDS011;4405;49.272;8.590;2023-12-22T03:25:45;3.30;;;1.50;;
8737;SDS011;4405;49.272;8.590;2023-12-22T03:28:11;4.23;;;1.50;;
8737;SDS011;4405;49.272;8.590;2023-12-22T03:30:38;4.43;;;1.50;;
8737;SDS011;4405;49.272;8.590;2023-12-22T03:33:05;5.47;;;1.80;;
8737;SDS011;4405;49.272;8.590;2023-12-22T03:35:32;4.13;;;1.50;;
8737;SDS011;4405;49.272;8.590;2023-12-22T03:37:58;4.53;;;1.40;;
8737;SDS011;4405;49.272;8.590;2023-12-22T03:40:24;3.07;;;1.30;;
8737;SDS011;4405;49.272;8.590;2023-12-22T03:42:51;4.00;;;1.17;;
8737;SDS011;4405;49.272;8.590;2023-12-22T03:45:17;2.93;;;1.60;;
8737;SDS011;4405;49.272;8.590;2023-12-22T03:47:43;2.87;;;1.30;;
8737;SDS011;4405;49.272;8.590;2023-12-22T03:50:11;3.73;;;1.43;;
8737;SDS011;4405;49.272;8.590;2023-12-22T03:52:37;3.20;;;1.60;;
8737;SDS011;4405;49.272;8.590;2023-12-22T03:55:04;1.90;;;1.40;;
8737;SDS011;4405;49.272;8.590;2023-12-22T03:57:30;2.20;;;1.27;;
8737;SDS011;4405;49.272;8.590;2023-12-22T03:59:57;5.47;;;1.50;;
8737;SDS011;4405;49.272;8.590;2023-12-22T04:02:23;2.40;;;1.30;;
8737;SDS011;4405;49.272;8.590;2023-12-22T04:04:49;3.17;;;1.37;;
8737;SDS011;4405;49.272;8.590;2023-12-22T04:07:17;1.73;;;0.87;;
8737;SDS011;4405;49.272;8.590;2023-12-22T04:09:43;1.17;;;0.90;;
8737;SDS011;4405;49.272;8.590;2023-12-22T04:12:09;0.90;;;0.90;;
8737;SDS011;4405;49.272;8.590;2023-12-22T04:14:36;1.57;;;0.90;;
8737;SDS011;4405;49.272;8.590;2023-12-22T04:17:02;3.70;;;0.90;;
8737;SDS011;4405;49.272;8.590;2023-12-22T04:19:28;3.10;;;0.90;;
8737;SDS011;4405;49.272;8.590;2023-12-22T04:21:55;1.10;;;0.80;;
8737;SDS011;4405;49.272;8.590;2023-12-22T04:24:22;2.93;;;1.10;;
8737;SDS011;4405;49.272;8.590;2023-12-22T04:26:49;1.60;;;1.00;;
8737;SDS011;4405;49.272;8.590;2023-12-22T04:29:15;3.23;;;1.33;;
8737;SDS011;4405;49.272;8.590;2023-12-22T04:31:41;1.93;;;1.30;;
8737;SDS011;4405;49.272;8.590;2023-12-22T04:34:08;1.33;;;1.20;;
8737;SDS011;4405;49.272;8.590;2023-12-22T04:36:34;2.17;;;1.20;;
8737;SDS011;4405;49.272;8.590;2023-12-22T04:39:01;3.17;;;1.17;;
8737;SDS011;4405;49.272;8.590;2023-12-22T04:41:29;2.37;;;1.20;;
8737;SDS011;4405;49.272;8.590;2023-12-22T04:43:55;3.20;;;1.27;;
8737;SDS011;4405;49.272;8.590;2023-12-22T04:46:21;1.47;;;1.37;;
8737;SDS011;4405;49.272;8.590;2023-12-22T04:48:47;3.03;;;1.30;;
8737;SDS011;4405;49.272;8.590;2023-12-22T04:51:17;2.90;;;1.00;;
8737;SDS011;4405;49.272;8.590;2023-12-22T04:53:43;2.30;;;1.13;;
8737;SDS011;4405;49.272;8.590;2023-12-22T04:56:09;2.60;;;1.30;;
8737;SDS011;4405;49.272;8.590;2023-12-22T04:58:37;2.67;;;1.20;;
8737;SDS011;4405;49.272;8.590;2023-12-22T05:01:04;5.07;;;1.43;;
8737;SDS011;4405;49.272;8.590;2023-12-22T05:03:30;2.83;;;1.40;;
8737;SDS011;4405;49.272;8.590;2023-12-22T05:05:56;3.03;;;1.20;;
8737;SDS011;4405;49.272;8.590;2023-12-22T05:08:22;2.80;;;1.30;;
8737;SDS011;4405;49.272;8.590;2023-12-22T05:10:49;3.07;;;1.13;;
8737;SDS011;4405;49.272;8.590;2023-12-22T05:13:15;2.27;;;1.23;;
8737;SDS011;4405;49.272;8.590;2023-12-22T05:15:43;2.97;;;1.30;;
8737;SDS011;4405;49.272;8.590;2023-12-22T05:18:10;3.10;;;1.47;;
8737;SDS011;4405;49.272;8.590;2023-12-22T05:20:36;3.60;;;1.43;;
8737;SDS011;4405;49.272;8.590;2023-12-22T05:23:03;4.03;;;1.33;;
8737;SDS011;4405;49.272;8.590;2023-12-22T05:25:29;7.20;;;1.70;;
8737;SDS011;4405;49.272;8.590;2023-12-22T05:27:56;3.70;;;1.30;;
8737;SDS011;4405;49.272;8.590;2023-12-22T05:30:23;3.40;;;1.50;;
8737;SDS011;4405;49.272;8.590;2023-12-22T05:32:50;3.73;;;1.87;;
8737;SDS011;4405;49.272;8.590;2023-12-22T05:35:17;5.67;;;1.50;;
8737;SDS011;4405;49.272;8.590;2023-12-22T05:37:43;6.10;;;1.60;;
8737;SDS011;4405;49.272;8.590;2023-12-22T05:40:09;4.90;;;1.70;;
8737;SDS011;4405;49.272;8.590;2023-12-22T05:42:36;4.80;;;1.73;;
8737;SDS011;4405;49.272;8.590;2023-12-22T05:45:03;3.33;;;1.70;;
8737;SDS011;4405;49.272;8.590;2023-12-22T05:47:31;6.13;;;1.50;;
8737;SDS011;4405;49.272;8.590;2023-12-22T05:49:59;3.27;;;1.60;;
8737;SDS011;4405;49.272;8.590;2023-12-22T05:52:25;4.27;;;1.77;;
8737;SDS011;4405;49.272;8.590;2023-12-22T05:54:52;4.33;;;1.80;;
8737;SDS011;4405;49.272;8.590;2023-12-22T05:57:19;4.37;;;1.43;;
8737;SDS011;4405;49.272;8.590;2023-12-22T05:59:45;3.37;;;1.53;;
8737;SDS011;4405;49.272;8.590;2023-12-22T06:02:12;5.10;;;1.70;;
8737;SDS011;4405;49.272;8.590;2023-12-22T06:04:40;6.17;;;1.90;;
8737;SDS011;4405;49.272;8.590;2023-12-22T06:07:07;5.60;;;1.90;;
8737;SDS011;4405;49.272;8.590;2023-12-22T06:09:34;3.67;;;1.70;;
8737;SDS011;4405;49.272;8.590;2023-12-22T06:11:59;2.87;;;1.70;;
8737;SDS011;4405;49.272;8.590;2023-12-22T06:14:25;3.20;;;1.47;;
8737;SDS011;4405;49.272;8.590;2023-12-22T06:16:52;4.40;;;1.90;;
8737;SDS011;4405;49.272;8.590;2023-12-22T06:19:18;4.97;;;2.20;;
8737;SDS011;4405;49.272;8.590;2023-12-22T06:21:45;7.63;;;2.10;;
8737;SDS011;4405;49.272;8.590;2023-12-22T06:24:13;5.67;;;2.00;;
8737;SDS011;4405;49.272;8.590;2023-12-22T06:26:41;6.27;;;2.00;;
8737;SDS011;4405;49.272;8.590;2023-12-22T06:29:10;10.53;;;1.80;;
8737;SDS011;4405;49.272;8.590;2023-12-22T06:31:37;3.80;;;1.63;;
8737;SDS011;4405;49.272;8.590;2023-12-22T06:34:03;6.57;;;1.97;;
8737;SDS011;4405;49.272;8.590;2023-12-22T06:36:30;6.07;;;1.83;;
8737;SDS011;4405;49.272;8.590;2023-12-22T06:38:56;4.07;;;2.03;;
8737;SDS011;4405;49.272;8.590;2023-12-22T06:41:25;3.37;;;1.83;;
8737;SDS011;4405;49.272;8.590;2023-12-22T06:43:51;2.90;;;1.63;;
8737;SDS011;4405;49.272;8.590;2023-12-22T06:46:18;5.87;;;1.93;;
8737;SDS011;4405;49.272;8.590;2023-12-22T06:48:45;4.93;;;1.80;;
8737;SDS011;4405;49.272;8.590;2023-12-22T06:51:17;4.50;;;1.53;;
8737;SDS011;4405;49.272;8.590;2023-12-22T06:53:44;3.57;;;1.40;;
8737;SDS011;4405;49.272;8.590;2023-12-22T06:56:14;3.93;;;1.50;;
8737;SDS011;4405;49.272;8.590;2023-12-22T06:58:42;5.30;;;1.50;;
8737;SDS011;4405;49.272;8.590;2023-12-22T07:01:08;3.87;;;1.67;;
8737;SDS011;4405;49.272;8.590;2023-12-22T07:03:36;3.77;;;1.30;;
8737;SDS011;4405;49.272;8.590;2023-12-22T07:06:03;6.17;;;1.40;;
8737;SDS011;4405;49.272;8.590;2023-12-22T07:08:30;2.87;;;1.20;;
8737;SDS011;4405;49.272;8.590;2023-12-22T07:10:56;3.97;;;1.33;;
8737;SDS011;4405;49.272;8.590;2023-12-22T07:13:22;5.67;;;1.33;;
8737;SDS011;4405;49.272;8.590;2023-12-22T07:15:50;2.33;;;1.17;;
8737;SDS011;4405;49.272;8.590;2023-12-22T07:18:16;3.10;;;1.10;;
8737;SDS011;4405;49.272;8.590;2023-12-22T07:20:43;3.90;;;1.37;;
8737;SDS011;4405;49.272;8.590;2023-12-22T07:23:09;3.13;;;1.10;;
8737;SDS011;4405;49.272;8.590;2023-12-22T07:25:36;4.13;;;1.20;;
8737;SDS011;4405;49.272;8.590;2023-12-22T07:28:03;2.93;;;1.33;;
8737;SDS011;4405;49.272;8.590;2023-12-22T07:30:30;1.90;;;1.17;;
8737;SDS011;4405;49.272;8.590;2023-12-22T07:32:58;3.33;;;1.10;;
8737;SDS011;4405;49.272;8.590;2023-12-22T07:35:24;3.07;;;1.40;;
8737;SDS011;4405;49.272;8.590;2023-12-22T07:37:50;1.40;;;1.30;;
8737;SDS011;4405;49.272;8.590;2023-12-22T07:40:17;3.03;;;1.07;;
8737;SDS011;4405;49.272;8.590;2023-12-22T07:42:43;1.93;;;1.00;;
8737;SDS011;4405;49.272;8.590;2023-12-22T07:45:09;4.27;;;1.17;;
8737;SDS011;4405;49.272;8.590;2023-12-22T07:47:36;3.50;;;1.23;;
8737;SDS011;4405;49.272;8.590;2023-12-22T07:50:04;4.37;;;1.30;;
8737;SDS011;4405;49.272;8.590;2023-12-22T07:52:33;2.53;;;1.40;;
8737;SDS011;4405;49.272;8.590;2023-12-22T07:55:02;1.53;;;1.20;;
8737;SDS011;4405;49.272;8.590;2023-12-22T07:57:29;3.93;;;1.27;;
8737;SDS011;4405;49.272;8.590;2023-12-22T07:59:55;2.20;;;1.30;;
8737;SDS011;4405;49.272;8.590;2023-12-22T08:02:22;1.70;;;1.37;;
8737;SDS011;4405;49.272;8.590;2023-12-22T08:04:48;2.93;;;1.30;;
8737;SDS011;4405;49.272;8.590;2023-12-22T08:07:16;2.53;;;1.10;;
8737;SDS011;4405;49.272;8.590;2023-12-22T08:09:43;1.70;;;1.30;;
8737;SDS011;4405;49.272;8.590;2023-12-22T08:12:09;1.63;;;1.27;;
8737;SDS011;4405;49.272;8.590;2023-12-22T08:14:35;5.90;;;1.57;;
8737;SDS011;4405;49.272;8.590;2023-12-22T08:17:02;4.30;;;1.97;;
8737;SDS011;4405;49.272;8.590;2023-12-22T08:19:28;3.67;;;1.57;;
8737;SDS011;4405;49.272;8.590;2023-12-22T08:21:54;3.60;;;1.50;;
8737;SDS011;4405;49.272;8.590;2023-12-22T08:24:22;6.57;;;2.00;;
8737;SDS011;4405;49.272;8.590;2023-12-22T08:26:48;5.23;;;1.83;;
8737;SDS011;4405;49.272;8.590;2023-12-22T08:29:15;3.33;;;1.47;;
8737;SDS011;4405;49.272;8.590;2023-12-22T08:31:41;4.50;;;1.87;;
8737;SDS011;4405;49.272;8.590;2023-12-22T08:34:08;6.43;;;2.03;;
8737;SDS011;4405;49.272;8.590;2023-12-22T08:36:35;4.23;;;1.77;;
8737;SDS011;4405;49.272;8.590;2023-12-22T08:39:01;4.40;;;1.70;;
8737;SDS011;4405;49.272;8.590;2023-12-22T08:41:29;5.37;;;1.77;;
8737;SDS011;4405;49.272;8.590;2023-12-22T08:44:01;5.50;;;1.97;;
8737;SDS011;4405;49.272;8.590;2023-12-22T08:46:27;4.07;;;1.80;;
8737;SDS011;4405;49.272;8.590;2023-12-22T08:48:54;6.13;;;1.80;;
8737;SDS011;4405;49.272;8.590;2023-12-22T08:51:20;8.47;;;2.37;;
8737;SDS011;4405;49.272;8.590;2023-12-22T08:53:47;4.70;;;1.83;;
8737;SDS011;4405;49.272;8.590;2023-12-22T08:56:15;4.77;;;2.20;;
8737;SDS011;4405;49.272;8.590;2023-12-22T08:58:43;9.10;;;2.40;;
8737;SDS011;4405;49.272;8.590;2023-12-22T09:01:13;6.77;;;2.20;;
8737;SDS011;4405;49.272;8.590;2023-12-22T09:03:40;5.13;;;1.87;;
8737;SDS011;4405;49.272;8.590;2023-12-22T09:06:10;6.83;;;2.33;;
8737;SDS011;4405;49.272;8.590;2023-12-22T09:08:38;6.53;;;2.23;;
8737;SDS011;4405;49.272;8.590;2023-12-22T09:11:04;6.40;;;2.10;;
8737;SDS011;4405;49.272;8.590;2023-12-22T09:13:30;9.40;;;2.13;;
8737;SDS011;4405;49.272;8.590;2023-12-22T09:15:58;8.63;;;2.43;;
8737;SDS011;4405;49.272;8.590;2023-12-22T09:18:25;9.30;;;2.33;;
8737;SDS011;4405;49.272;8.590;2023-12-22T09:20:51;9.77;;;2.37;;
8737;SDS011;4405;49.272;8.590;2023-12-22T09:23:17;9.80;;;2.43;;
8737;SDS011;4405;49.272;8.590;2023-12-22T09:25:45;6.47;;;2.30;;
8737;SDS011;4405;49.272;8.590;2023-12-22T09:28:11;5.73;;;2.13;;
8737;SDS011;4405;49.272;8.590;2023-12-22T09:30:37;6.60;;;2.70;;
8737;SDS011;4405;49.272;8.590;2023-12-22T09:33:05;11.03;;;2.40;;
8737;SDS011;4405;49.272;8.590;2023-12-22T09:35:31;13.40;;;3.07;;
8737;SDS011;4405;49.272;8.590;2023-12-22T09:37:58;6.57;;;2.40;;
8737;SDS011;4405;49.272;8.590;2023-12-22T09:40:24;9.33;;;3.00;;
8737;SDS011;4405;49.272;8.590;2023-12-22T09:42:52;11.77;;;2.80;;
8737;SDS011;4405;49.272;8.590;2023-12-22T09:45:20;10.83;;;3.40;;
8737;SDS011;4405;49.272;8.590;2023-12-22T09:47:47;10.07;;;2.90;;
8737;SDS011;4405;49.272;8.590;2023-12-22T09:50:15;14.97;;;2.70;;
8737;SDS011;4405;49.272;8.590;2023-12-22T09:52:42;9.83;;;3.00;;
8737;SDS011;4405;49.272;8.590;2023-12-22T09:55:09;13.30;;;3.17;;
8737;SDS011;4405;49.272;8.590;2023-12-22T09:57:36;15.20;;;3.23;;
8737;SDS011;4405;49.272;8.590;2023-12-22T10:00:03;9.70;;;2.63;;
8737;SDS011;4405;49.272;8.590;2023-12-22T10:02:31;9.97;;;3.00;;
8737;SDS011;4405;49.272;8.590;2023-12-22T10:04:59;11.37;;;2.80;;
8737;SDS011;4405;49.272;8.590;2023-12-22T10:07:27;10.27;;;2.93;;
8737;SDS011;4405;49.272;8.590;2023-12-22T10:09:54;12.77;;;3.27;;
8737;SDS011;4405;49.272;8.590;2023-12-22T10:12:21;11.50;;;3.20;;
8737;SDS011;4405;49.272;8.590;2023-12-22T10:14:48;14.77;;;3.43;;
8737;SDS011;4405;49.272;8.590;2023-12-22T10:17:14;13.10;;;3.13;;
8737;SDS011;4405;49.272;8.590;2023-12-22T10:19:41;14.50;;;3.00;;
8737;SDS011;4405;49.272;8.590;2023-12-22T10:22:08;15.17;;;3.70;;
8737;SDS011;4405;49.272;8.590;2023-12-22T10:24:39;14.40;;;3.57;;
8737;SDS011;4405;49.272;8.590;2023-12-22T10:27:07;11.30;;;3.00;;
8737;SDS011;4405;49.272;8.590;2023-12-22T10:29:33;14.07;;;3.30;;
8737;SDS011;4405;49.272;8.590;2023-12-22T10:32:00;12.57;;;2.97;;
8737;SDS011;4405;49.272;8.590;2023-12-22T10:34:26;11.60;;;3.17;;
8737;SDS011;4405;49.272;8.590;2023-12-22T10:36:53;14.93;;;2.87;;
8737;SDS011;4405;49.272;8.590;2023-12-22T10:39:19;10.40;;;3.33;;
8737;SDS011;4405;49.272;8.590;2023-12-22T10:41:47;12.97;;;3.30;;
8737;SDS011;4405;49.272;8.590;2023-12-22T10:44:14;12.53;;;3.13;;
8737;SDS011;4405;49.272;8.590;2023-12-22T10:46:42;10.47;;;3.00;;
8737;SDS011;4405;49.272;8.590;2023-12-22T10:49:08;17.63;;;3.53;;
8737;SDS011;4405;49.272;8.590;2023-12-22T10:51:35;9.23;;;2.80;;
8737;SDS011;4405;49.272;8.590;2023-12-22T10:54:01;12.90;;;2.77;;
8737;SDS011;4405;49.272;8.590;2023-12-22T10:56:30;11.57;;;2.83;;
8737;SDS011;4405;49.272;8.590;2023-12-22T10:58:58;10.43;;;3.07;;
8737;SDS011;4405;49.272;8.590;2023-12-22T11:01:25;11.53;;;2.83;;
8737;SDS011;4405;49.272;8.590;2023-12-22T11:03:54;12.27;;;3.03;;
8737;SDS011;4405;49.272;8.590;2023-12-22T11:06:23;13.60;;;2.73;;
8737;SDS011;4405;49.272;8.590;2023-12-22T11:08:51;14.60;;;3.23;;
8737;SDS011;4405;49.272;8.590;2023-12-22T11:11:20;12.37;;;2.90;;
8737;SDS011;4405;49.272;8.590;2023-12-22T11:13:47;8.47;;;2.50;;
8737;SDS011;4405;49.272;8.590;2023-12-22T11:16:17;10.03;;;2.90;;
8737;SDS011;4405;49.272;8.590;2023-12-22T11:18:44;9.17;;;2.83;;
8737;SDS011;4405;49.272;8.590;2023-12-22T11:21:11;9.63;;;2.77;;
8737;SDS011;4405;49.272;8.590;2023-12-22T11:23:39;6.60;;;2.37;;
8737;SDS011;4405;49.272;8.590;2023-12-22T11:26:06;11.90;;;2.73;;
8737;SDS011;4405;49.272;8.590;2023-12-22T11:28:36;9.70;;;2.77;;
8737;SDS011;4405;49.272;8.590;2023-12-22T11:31:03;7.30;;;2.23;;
8737;SDS011;4405;49.272;8.590;2023-12-22T11:33:31;10.00;;;2.73;;
8737;SDS011;4405;49.272;8.590;2023-12-22T11:35:57;7.97;;;2.73;;
8737;SDS011;4405;49.272;8.590;2023-12-22T11:38:25;10.87;;;2.50;;
8737;SDS011;4405;49.272;8.590;2023-12-22T11:40:51;8.83;;;2.40;;
8737;SDS011;4405;49.272;8.590;2023-12-22T11:43:18;8.97;;;2.50;;
8737;SDS011;4405;49.272;8.590;2023-12-22T11:45:45;12.23;;;2.63;;
8737;SDS011;4405;49.272;8.590;2023-12-22T11:48:11;3.50;;;1.97;;
8737;SDS011;4405;49.272;8.590;2023-12-22T11:50:39;6.77;;;1.57;;
8737;SDS011;4405;49.272;8.590;2023-12-22T11:53:18;7.80;;;2.20;;
8737;SDS011;4405;49.272;8.590;2023-12-22T11:55:58;3.07;;;1.57;;
8737;SDS011;4405;49.272;8.590;2023-12-22T11:58:34;5.77;;;1.73;;
8737;SDS011;4405;49.272;8.590;2023-12-22T12:01:01;3.97;;;1.73;;
8737;SDS011;4405;49.272;8.590;2023-12-22T12:03:29;3.77;;;1.67;;
8737;SDS011;4405;49.272;8.590;2023-12-22T12:06:11;4.13;;;1.70;;
8737;SDS011;4405;49.272;8.590;2023-12-22T12:08:37;5.83;;;1.60;;
8737;SDS011;4405;49.272;8.590;2023-12-22T12:11:03;4.77;;;1.67;;
8737;SDS011;4405;49.272;8.590;2023-12-22T12:13:32;5.17;;;1.67;;
8737;SDS011;4405;49.272;8.590;2023-12-22T12:15:59;5.97;;;1.60;;
8737;SDS011;4405;49.272;8.590;2023-12-22T12:18:27;3.03;;;1.33;;
8737;SDS011;4405;49.272;8.590;2023-12-22T12:20:53;3.37;;;1.67;;
8737;SDS011;4405;49.272;8.590;2023-12-22T12:23:21;1.73;;;1.30;;
8737;SDS011;4405;49.272;8.590;2023-12-22T12:25:49;4.57;;;1.40;;
8737;SDS011;4405;49.272;8.590;2023-12-22T12:28:15;4.37;;;1.37;;
8737;SDS011;4405;49.272;8.590;2023-12-22T12:30:43;3.03;;;1.20;;
8737;SDS011;4405;49.272;8.590;2023-12-22T12:33:12;3.47;;;1.50;;
8737;SDS011;4405;49.272;8.590;2023-12-22T12:35:38;1.90;;;1.10;;
8737;SDS011;4405;49.272;8.590;2023-12-22T12:38:05;2.73;;;1.20;;
8737;SDS011;4405;49.272;8.590;2023-12-22T12:40:33;1.80;;;0.93;;
8737;SDS011;4405;49.272;8.590;2023-12-22T12:43:02;5.17;;;1.20;;
8737;SDS011;4405;49.272;8.590;2023-12-22T12:45:29;4.27;;;1.20;;
8737;SDS011;4405;49.272;8.590;2023-12-22T12:47:55;1.37;;;1.10;;
8737;SDS011;4405;49.272;8.590;2023-12-22T12:50:22;1.50;;;1.13;;
8737;SDS011;4405;49.272;8.590;2023-12-22T12:52:49;3.47;;;1.10;;
8737;SDS011;4405;49.272;8.590;2023-12-22T12:55:16;1.97;;;0.90;;
8737;SDS011;4405;49.272;8.590;2023-12-22T12:57:44;2.87;;;0.80;;
8737;SDS011;4405;49.272;8.590;2023-12-22T13:00:11;1.63;;;0.97;;
8737;SDS011;4405;49.272;8.590;2023-12-22T13:02:38;2.90;;;1.20;;
8737;SDS011;4405;49.272;8.590;2023-12-22T13:05:04;2.70;;;0.90;;
8737;SDS011;4405;49.272;8.590;2023-12-22T13:07:35;1.70;;;0.90;;
8737;SDS011;4405;49.272;8.590;2023-12-22T13:10:00;2.57;;;1.00;;
8737;SDS011;4405;49.272;8.590;2023-12-22T13:12:26;0.80;;;0.67;;
8737;SDS011;4405;49.272;8.590;2023-12-22T13:14:54;2.10;;;1.03;;
8737;SDS011;4405;49.272;8.590;2023-12-22T13:17:21;0.87;;;0.83;;
8737;SDS011;4405;49.272;8.590;2023-12-22T13:19:47;1.30;;;1.00;;
8737;SDS011;4405;49.272;8.590;2023-12-22T13:22:15;0.87;;;0.87;;
8737;SDS011;4405;49.272;8.590;2023-12-22T13:24:41;1.07;;;0.97;;
8737;SDS011;4405;49.272;8.590;2023-12-22T13:27:08;0.90;;;0.80;;
8737;SDS011;4405;49.272;8.590;2023-12-22T13:29:44;0.87;;;0.70;;
8737;SDS011;4405;49.272;8.590;2023-12-22T13:32:18;0.77;;;0.77;;
8737;SDS011;4405;49.272;8.590;2023-12-22T13:34:48;4.93;;;0.70;;
8737;SDS011;4405;49.272;8.590;2023-12-22T13:37:15;0.70;;;0.70;;
8737;SDS011;4405;49.272;8.590;2023-12-22T13:39:42;2.87;;;0.70;;
8737;SDS011;4405;49.272;8.590;2023-12-22T13:42:13;0.90;;;0.90;;
8737;SDS011;4405;49.272;8.590;2023-12-22T13:44:41;1.10;;;1.00;;
8737;SDS011;4405;49.272;8.590;2023-12-22T13:47:08;0.70;;;0.70;;
8737;SDS011;4405;49.272;8.590;2023-12-22T13:49:36;0.87;;;0.87;;
8737;SDS011;4405;49.272;8.590;2023-12-22T13:52:03;1.47;;;0.80;;
8737;SDS011;4405;49.272;8.590;2023-12-22T13:54:32;2.63;;;0.80;;
8737;SDS011;4405;49.272;8.590;2023-12-22T13:56:59;1.03;;;0.93;;
8737;SDS011;4405;49.272;8.590;2023-12-22T13:59:31;0.87;;;0.87;;
8737;SDS011;4405;49.272;8.590;2023-12-22T14:01:58;0.77;;;0.77;;
8737;SDS011;4405;49.272;8.590;2023-12-22T14:04:25;0.70;;;0.70;;
8737;SDS011;4405;49.272;8.590;2023-12-22T14:06:52;0.57;;;0.57;;
8737;SDS011;4405;49.272;8.590;2023-12-22T14:09:19;0.40;;;0.40;;
8737;SDS011;4405;49.272;8.590;2023-12-22T14:11:49;0.60;;;0.60;;
8737;SDS011;4405;49.272;8.590;2023-12-22T14:14:15;1.13;;;0.50;;
8737;SDS011;4405;49.272;8.590;2023-12-22T14:16:43;0.73;;;0.60;;
8737;SDS011;4405;49.272;8.590;2023-12-22T14:19:09;0.50;;;0.50;;
8737;SDS011;4405;49.272;8.590;2023-12-22T14:21:35;0.70;;;0.70;;
8737;SDS011;4405;49.272;8.590;2023-12-22T14:24:03;0.50;;;0.50;;
8737;SDS011;4405;49.272;8.590;2023-12-22T14:26:30;0.57;;;0.57;;
8737;SDS011;4405;49.272;8.590;2023-12-22T14:28:56;0.40;;;0.40;;
8737;SDS011;4405;49.272;8.590;2023-12-22T14:31:22;0.73;;;0.50;;
8737;SDS011;4405;49.272;8.590;2023-12-22T14:33:48;0.60;;;0.60;;
8737;SDS011;4405;49.272;8.590;2023-12-22T14:36:15;0.67;;;0.67;;
8737;SDS011;4405;49.272;8.590;2023-12-22T14:38:42;1.20;;;0.70;;
8737;SDS011;4405;49.272;8.590;2023-12-22T14:41:09;0.50;;;0.50;;
8737;SDS011;4405;49.272;8.590;2023-12-22T14:43:36;0.80;;;0.60;;
8737;SDS011;4405;49.272;8.590;2023-12-22T14:46:02;0.30;;;0.30;;
8737;SDS011;4405;49.272;8.590;2023-12-22T14:48:29;0.50;;;0.50;;
8737;SDS011;4405;49.272;8.590;2023-12-22T14:50:55;1.53;;;0.50;;
8737;SDS011;4405;49.272;8.590;2023-12-22T14:53:21;0.70;;;0.70;;
8737;SDS011;4405;49.272;8.590;2023-12-22T14:55:48;0.40;;;0.40;;
8737;SDS011;4405;49.272;8.590;2023-12-22T14:58:15;0.70;;;0.70;;
8737;SDS011;4405;49.272;8.590;2023-12-22T15:00:42;0.50;;;0.50;;
8737;SDS011;4405;49.272;8.590;2023-12-22T15:03:08;0.50;;;0.50;;
8737;SDS011;4405;49.272;8.590;2023-12-22T15:05:35;0.50;;;0.50;;
8737;SDS011;4405;49.272;8.590;2023-12-22T15:08:01;0.50;;;0.47;;
8737;SDS011;4405;49.272;8.590;2023-12-22T15:10:27;0.67;;;0.67;;
8737;SDS011;4405;49.272;8.590;2023-12-22T15:12:54;0.60;;;0.60;;